sensor_id;sensor_type;location;lat;lon;timestamp;pressure;altitude;pressure_sealevel;temperature;humidity
39051;BME280;24805;55.852;37.644;2023-08-07T00:00:05;99395.09;;;25.50;52.40
39051;BME280;24805;55.852;37.644;2023-08-07T00:05:11;99386.94;;;25.45;52.20
39051;BME280;24805;55.852;37.644;2023-08-07T00:10:14;99387.03;;;25.25;52.86
39051;BME280;24805;55.852;37.644;2023-08-07T00:15:16;99388.66;;;25.21;53.64
39051;BME280;24805;55.852;37.644;2023-08-07T00:20:19;99391.16;;;25.12;53.52
39051;BME280;24805;55.852;37.644;2023-08-07T00:25:21;99390.34;;;25.12;53.25
39051;BME280;24805;55.852;37.644;2023-08-07T00:30:25;99382.19;;;25.01;53.49
39051;BME280;24805;55.852;37.644;2023-08-07T00:35:28;99388.72;;;25.05;53.01
39051;BME280;24805;55.852;37.644;2023-08-07T00:40:38;99384.09;;;25.16;53.29
39051;BME280;24805;55.852;37.644;2023-08-07T00:45:46;99387.34;;;25.08;52.97
39051;BME280;24805;55.852;37.644;2023-08-07T00:50:50;99385.75;;;24.97;53.88
39051;BME280;24805;55.852;37.644;2023-08-07T00:55:53;99376.50;;;24.88;53.83
39051;BME280;24805;55.852;37.644;2023-08-07T01:00:55;99374.63;;;24.83;53.83
39051;BME280;24805;55.852;37.644;2023-08-07T01:05:59;99372.44;;;24.80;53.64
39051;BME280;24805;55.852;37.644;2023-08-07T01:11:30;99363.75;;;24.98;53.08
39051;BME280;24805;55.852;37.644;2023-08-07T01:16:54;99367.56;;;24.82;53.85
39051;BME280;24805;55.852;37.644;2023-08-07T01:22:13;99365.97;;;24.76;53.82
39051;BME280;24805;55.852;37.644;2023-08-07T01:27:28;99358.09;;;24.75;53.89
39051;BME280;24805;55.852;37.644;2023-08-07T01:37:40;99350.00;;;24.54;54.83
39051;BME280;24805;55.852;37.644;2023-08-07T01:42:44;99360.00;;;24.38;55.01
39051;BME280;24805;55.852;37.644;2023-08-07T01:47:46;99358.94;;;24.29;55.22
39051;BME280;24805;55.852;37.644;2023-08-07T01:52:49;99357.28;;;24.23;55.40
39051;BME280;24805;55.852;37.644;2023-08-07T01:57:52;99351.06;;;24.13;55.85
39051;BME280;24805;55.852;37.644;2023-08-07T02:02:55;99350.78;;;24.09;55.89
39051;BME280;24805;55.852;37.644;2023-08-07T02:07:57;99352.66;;;24.03;56.32
39051;BME280;24805;55.852;37.644;2023-08-07T02:13:00;99343.44;;;23.99;56.32
39051;BME280;24805;55.852;37.644;2023-08-07T02:18:03;99346.44;;;23.98;56.30
39051;BME280;24805;55.852;37.644;2023-08-07T02:23:06;99348.84;;;23.99;56.39
39051;BME280;24805;55.852;37.644;2023-08-07T02:28:08;99342.09;;;23.97;56.56
39051;BME280;24805;55.852;37.644;2023-08-07T02:33:11;99342.38;;;23.95;56.65
39051;BME280;24805;55.852;37.644;2023-08-07T02:38:13;99349.16;;;23.98;56.54
39051;BME280;24805;55.852;37.644;2023-08-07T02:43:15;99345.31;;;23.99;56.61
39051;BME280;24805;55.852;37.644;2023-08-07T02:48:18;99343.16;;;24.01;56.24
39051;BME280;24805;55.852;37.644;2023-08-07T02:53:21;99340.19;;;24.02;56.35
39051;BME280;24805;55.852;37.644;2023-08-07T02:58:23;99347.78;;;24.11;56.35
39051;BME280;24805;55.852;37.644;2023-08-07T03:03:26;99352.66;;;24.19;56.04
39051;BME280;24805;55.852;37.644;2023-08-07T03:08:28;99346.44;;;24.23;55.71
39051;BME280;24805;55.852;37.644;2023-08-07T03:13:30;99342.94;;;24.28;55.67
39051;BME280;24805;55.852;37.644;2023-08-07T03:18:33;99331.03;;;24.29;56.12
39051;BME280;24805;55.852;37.644;2023-08-07T03:23:36;99334.78;;;24.38;55.16
39051;BME280;24805;55.852;37.644;2023-08-07T03:28:40;99344.03;;;24.47;54.70
39051;BME280;24805;55.852;37.644;2023-08-07T03:33:43;99344.28;;;24.56;54.65
39051;BME280;24805;55.852;37.644;2023-08-07T03:38:47;99336.41;;;24.64;54.45
39051;BME280;24805;55.852;37.644;2023-08-07T03:43:49;99322.84;;;24.75;54.03
39051;BME280;24805;55.852;37.644;2023-08-07T03:48:52;99333.66;;;24.85;53.42
39051;BME280;24805;55.852;37.644;2023-08-07T03:53:55;99332.81;;;24.89;53.01
39051;BME280;24805;55.852;37.644;2023-08-07T03:58:57;99333.34;;;25.01;53.08
39051;BME280;24805;55.852;37.644;2023-08-07T04:04:00;99327.91;;;25.12;52.80
39051;BME280;24805;55.852;37.644;2023-08-07T04:09:02;99331.38;;;25.22;52.17
39051;BME280;24805;55.852;37.644;2023-08-07T04:14:05;99331.63;;;25.31;51.96
39051;BME280;24805;55.852;37.644;2023-08-07T04:19:08;99341.03;;;25.49;51.56
39051;BME280;24805;55.852;37.644;2023-08-07T04:24:10;99341.03;;;25.54;51.11
39051;BME280;24805;55.852;37.644;2023-08-07T04:29:13;99339.06;;;25.59;50.38
39051;BME280;24805;55.852;37.644;2023-08-07T04:34:15;99325.25;;;25.56;50.50
39051;BME280;24805;55.852;37.644;2023-08-07T04:39:18;99338.25;;;25.69;50.19
39051;BME280;24805;55.852;37.644;2023-08-07T04:44:20;99344.69;;;25.78;49.96
39051;BME280;24805;55.852;37.644;2023-08-07T04:49:23;99338.75;;;25.76;49.48
39051;BME280;24805;55.852;37.644;2023-08-07T04:54:25;99334.06;;;25.87;49.38
39051;BME280;24805;55.852;37.644;2023-08-07T04:59:28;99336.47;;;25.93;48.87
39051;BME280;24805;55.852;37.644;2023-08-07T05:04:32;99327.38;;;26.08;48.51
39051;BME280;24805;55.852;37.644;2023-08-07T05:09:34;99312.03;;;26.22;48.54
39051;BME280;24805;55.852;37.644;2023-08-07T05:14:37;99320.16;;;26.32;47.60
39051;BME280;24805;55.852;37.644;2023-08-07T05:19:39;99309.34;;;26.51;47.44
39051;BME280;24805;55.852;37.644;2023-08-07T05:24:41;99315.16;;;26.97;46.39
39051;BME280;24805;55.852;37.644;2023-08-07T05:29:45;99303.53;;;28.09;44.42
39051;BME280;24805;55.852;37.644;2023-08-07T05:34:48;99308.69;;;28.90;41.81
39051;BME280;24805;55.852;37.644;2023-08-07T05:39:51;99302.69;;;29.56;39.93
39051;BME280;24805;55.852;37.644;2023-08-07T05:44:53;99291.00;;;30.00;39.09
39051;BME280;24805;55.852;37.644;2023-08-07T05:49:56;99292.69;;;30.10;38.15
39051;BME280;24805;55.852;37.644;2023-08-07T05:54:58;99296.47;;;30.54;37.29
39051;BME280;24805;55.852;37.644;2023-08-07T06:00:00;99284.19;;;31.13;36.07
39051;BME280;24805;55.852;37.644;2023-08-07T06:05:14;99272.78;;;31.45;34.88
39051;BME280;24805;55.852;37.644;2023-08-07T06:10:17;99267.03;;;31.90;34.69
39051;BME280;24805;55.852;37.644;2023-08-07T06:15:20;99262.31;;;32.08;33.91
39051;BME280;24805;55.852;37.644;2023-08-07T06:20:23;99268.91;;;32.15;33.32
39051;BME280;24805;55.852;37.644;2023-08-07T06:25:25;99277.28;;;32.19;33.63
39051;BME280;24805;55.852;37.644;2023-08-07T06:30:28;99264.53;;;32.78;32.78
39051;BME280;24805;55.852;37.644;2023-08-07T06:35:30;99272.34;;;33.35;32.06
39051;BME280;24805;55.852;37.644;2023-08-07T06:40:35;99272.88;;;33.70;30.43
39051;BME280;24805;55.852;37.644;2023-08-07T06:45:37;99283.44;;;33.39;30.41
39051;BME280;24805;55.852;37.644;2023-08-07T06:50:40;99278.50;;;33.32;30.85
39051;BME280;24805;55.852;37.644;2023-08-07T06:55:42;99255.50;;;33.58;30.12
39051;BME280;24805;55.852;37.644;2023-08-07T07:00:45;99250.06;;;33.91;30.41
39051;BME280;24805;55.852;37.644;2023-08-07T07:05:49;99250.13;;;34.60;28.94
39051;BME280;24805;55.852;37.644;2023-08-07T07:10:52;99251.03;;;35.25;27.84
39051;BME280;24805;55.852;37.644;2023-08-07T07:15:55;99236.41;;;35.49;27.10
39051;BME280;24805;55.852;37.644;2023-08-07T07:20:58;99235.31;;;35.13;27.06
39051;BME280;24805;55.852;37.644;2023-08-07T07:26:02;99224.06;;;35.31;27.40
39051;BME280;24805;55.852;37.644;2023-08-07T07:31:05;99226.25;;;36.37;26.32
39051;BME280;24805;55.852;37.644;2023-08-07T07:36:07;99226.75;;;36.58;25.02
39051;BME280;24805;55.852;37.644;2023-08-07T07:41:15;99219.34;;;36.15;25.14
39051;BME280;24805;55.852;37.644;2023-08-07T07:46:18;99229.13;;;36.12;25.53
39051;BME280;24805;55.852;37.644;2023-08-07T07:51:21;99225.25;;;36.29;24.84
39051;BME280;24805;55.852;37.644;2023-08-07T07:56:23;99226.06;;;36.30;24.64
39051;BME280;24805;55.852;37.644;2023-08-07T08:01:26;99209.31;;;36.54;24.13
39051;BME280;24805;55.852;37.644;2023-08-07T08:06:28;99232.38;;;36.77;24.18
39051;BME280;24805;55.852;37.644;2023-08-07T08:11:32;99216.34;;;36.67;24.44
39051;BME280;24805;55.852;37.644;2023-08-07T08:16:35;99226.75;;;36.89;23.82
39051;BME280;24805;55.852;37.644;2023-08-07T08:21:38;99237.75;;;37.21;23.80
39051;BME280;24805;55.852;37.644;2023-08-07T08:26:42;99200.28;;;37.81;22.60
39051;BME280;24805;55.852;37.644;2023-08-07T08:31:44;99197.47;;;38.20;22.05
39051;BME280;24805;55.852;37.644;2023-08-07T08:36:47;99212.06;;;38.89;21.64
39051;BME280;24805;55.852;37.644;2023-08-07T08:41:49;99182.59;;;39.04;21.63
39051;BME280;24805;55.852;37.644;2023-08-07T08:46:52;99184.53;;;39.97;21.01
39051;BME280;24805;55.852;37.644;2023-08-07T08:51:58;99163.63;;;40.57;20.05
39051;BME280;24805;55.852;37.644;2023-08-07T08:57:02;99179.47;;;41.12;19.91
39051;BME280;24805;55.852;37.644;2023-08-07T09:02:06;99151.75;;;41.26;19.33
39051;BME280;24805;55.852;37.644;2023-08-07T09:07:10;99165.72;;;40.71;19.71
39051;BME280;24805;55.852;37.644;2023-08-07T09:12:20;99165.63;;;40.60;19.92
39051;BME280;24805;55.852;37.644;2023-08-07T09:17:31;99167.81;;;40.85;19.82
39051;BME280;24805;55.852;37.644;2023-08-07T09:22:37;99159.97;;;40.46;19.48
39051;BME280;24805;55.852;37.644;2023-08-07T09:27:40;99150.28;;;40.81;19.94
39051;BME280;24805;55.852;37.644;2023-08-07T09:32:47;99163.44;;;41.74;18.96
39051;BME280;24805;55.852;37.644;2023-08-07T09:37:50;99140.31;;;41.59;18.91
39051;BME280;24805;55.852;37.644;2023-08-07T09:42:54;99145.97;;;42.73;18.04
39051;BME280;24805;55.852;37.644;2023-08-07T09:48:02;99132.03;;;42.62;17.94
39051;BME280;24805;55.852;37.644;2023-08-07T09:53:05;99132.06;;;42.27;17.64
39051;BME280;24805;55.852;37.644;2023-08-07T09:58:08;99122.53;;;42.14;17.60
39051;BME280;24805;55.852;37.644;2023-08-07T10:03:14;99126.75;;;41.44;18.44
39051;BME280;24805;55.852;37.644;2023-08-07T10:08:18;99110.53;;;41.85;18.25
39051;BME280;24805;55.852;37.644;2023-08-07T10:13:21;99142.38;;;41.98;18.30
39051;BME280;24805;55.852;37.644;2023-08-07T10:18:40;99117.91;;;41.20;18.21
39051;BME280;24805;55.852;37.644;2023-08-07T10:23:43;99122.69;;;41.16;18.62
39051;BME280;24805;55.852;37.644;2023-08-07T10:28:47;99111.84;;;41.01;18.73
39051;BME280;24805;55.852;37.644;2023-08-07T10:33:51;99099.44;;;40.77;18.60
39051;BME280;24805;55.852;37.644;2023-08-07T10:39:15;99095.50;;;40.88;18.82
39051;BME280;24805;55.852;37.644;2023-08-07T10:44:19;99092.53;;;40.60;19.06
39051;BME280;24805;55.852;37.644;2023-08-07T10:49:39;99092.09;;;41.27;18.73
39051;BME280;24805;55.852;37.644;2023-08-07T10:54:49;99076.72;;;40.68;18.86
39051;BME280;24805;55.852;37.644;2023-08-07T11:04:58;99056.44;;;41.72;17.77
39051;BME280;24805;55.852;37.644;2023-08-07T11:10:01;99034.91;;;42.29;17.02
39051;BME280;24805;55.852;37.644;2023-08-07T11:15:05;99040.84;;;42.52;17.07
39051;BME280;24805;55.852;37.644;2023-08-07T11:20:09;99053.22;;;42.23;17.06
39051;BME280;24805;55.852;37.644;2023-08-07T11:25:13;99022.56;;;41.98;17.45
39051;BME280;24805;55.852;37.644;2023-08-07T11:30:17;99030.53;;;41.78;17.28
39051;BME280;24805;55.852;37.644;2023-08-07T11:35:20;99027.75;;;41.85;17.22
39051;BME280;24805;55.852;37.644;2023-08-07T11:40:25;99030.16;;;42.05;16.94
39051;BME280;24805;55.852;37.644;2023-08-07T11:45:28;99021.81;;;41.94;17.05
39051;BME280;24805;55.852;37.644;2023-08-07T11:50:31;99037.25;;;41.38;18.02
39051;BME280;24805;55.852;37.644;2023-08-07T11:55:34;99017.25;;;40.97;18.78
39051;BME280;24805;55.852;37.644;2023-08-07T12:00:37;98995.09;;;41.22;18.09
39051;BME280;24805;55.852;37.644;2023-08-07T12:05:40;98998.72;;;41.54;17.94
39051;BME280;24805;55.852;37.644;2023-08-07T12:10:53;98999.50;;;41.90;17.91
39051;BME280;24805;55.852;37.644;2023-08-07T12:15:57;98957.72;;;41.87;17.57
39051;BME280;24805;55.852;37.644;2023-08-07T12:21:03;98981.22;;;41.36;18.28
39051;BME280;24805;55.852;37.644;2023-08-07T12:26:07;98983.56;;;41.16;17.97
39051;BME280;24805;55.852;37.644;2023-08-07T12:31:09;98963.44;;;40.47;19.06
39051;BME280;24805;55.852;37.644;2023-08-07T12:36:12;98964.75;;;39.50;20.09
39051;BME280;24805;55.852;37.644;2023-08-07T12:41:19;98965.97;;;39.12;20.59
39051;BME280;24805;55.852;37.644;2023-08-07T12:46:25;98936.28;;;39.16;20.77
39051;BME280;24805;55.852;37.644;2023-08-07T12:51:31;98947.66;;;39.45;20.74
39051;BME280;24805;55.852;37.644;2023-08-07T12:56:33;98939.91;;;39.24;20.47
39051;BME280;24805;55.852;37.644;2023-08-07T13:01:36;98930.22;;;39.04;20.69
39051;BME280;24805;55.852;37.644;2023-08-07T13:06:39;98937.47;;;38.48;21.34
39051;BME280;24805;55.852;37.644;2023-08-07T13:11:42;98914.22;;;37.97;22.30
39051;BME280;24805;55.852;37.644;2023-08-07T13:16:45;98921.84;;;38.33;21.53
39051;BME280;24805;55.852;37.644;2023-08-07T13:21:48;98919.75;;;37.47;22.08
39051;BME280;24805;55.852;37.644;2023-08-07T13:26:51;98904.28;;;36.97;22.99
39051;BME280;24805;55.852;37.644;2023-08-07T13:31:53;98912.50;;;36.94;23.55
39051;BME280;24805;55.852;37.644;2023-08-07T13:36:56;98890.63;;;37.08;24.33
39051;BME280;24805;55.852;37.644;2023-08-07T13:42:01;98886.75;;;36.70;24.20
39051;BME280;24805;55.852;37.644;2023-08-07T13:47:05;98901.78;;;36.31;24.34
39051;BME280;24805;55.852;37.644;2023-08-07T13:52:07;98895.09;;;35.46;25.72
39051;BME280;24805;55.852;37.644;2023-08-07T13:57:10;98869.09;;;34.84;26.82
39051;BME280;24805;55.852;37.644;2023-08-07T14:02:12;98865.31;;;34.20;28.06
39051;BME280;24805;55.852;37.644;2023-08-07T14:07:15;98860.03;;;33.75;29.75
39051;BME280;24805;55.852;37.644;2023-08-07T14:12:18;98845.88;;;33.37;30.27
39051;BME280;24805;55.852;37.644;2023-08-07T14:17:21;98843.88;;;33.01;30.73
39051;BME280;24805;55.852;37.644;2023-08-07T14:22:23;98838.00;;;32.78;31.34
39051;BME280;24805;55.852;37.644;2023-08-07T14:27:26;98833.59;;;32.65;31.69
39051;BME280;24805;55.852;37.644;2023-08-07T14:32:28;98840.66;;;32.53;31.80
39051;BME280;24805;55.852;37.644;2023-08-07T14:37:31;98847.66;;;32.63;31.77
39051;BME280;24805;55.852;37.644;2023-08-07T14:42:33;98830.03;;;32.52;31.83
39051;BME280;24805;55.852;37.644;2023-08-07T14:47:36;98804.69;;;32.34;32.35
39051;BME280;24805;55.852;37.644;2023-08-07T14:52:39;98808.81;;;32.19;32.61
39051;BME280;24805;55.852;37.644;2023-08-07T14:57:42;98818.16;;;32.06;32.52
39051;BME280;24805;55.852;37.644;2023-08-07T15:02:44;98816.28;;;31.98;33.20
39051;BME280;24805;55.852;37.644;2023-08-07T15:07:47;98820.19;;;31.97;33.23
39051;BME280;24805;55.852;37.644;2023-08-07T15:12:50;98824.13;;;31.88;32.97
39051;BME280;24805;55.852;37.644;2023-08-07T15:17:52;98806.47;;;31.76;33.42
39051;BME280;24805;55.852;37.644;2023-08-07T15:22:55;98815.38;;;31.73;33.77
39051;BME280;24805;55.852;37.644;2023-08-07T15:27:58;98814.44;;;31.61;33.67
39051;BME280;24805;55.852;37.644;2023-08-07T15:33:03;98815.84;;;31.46;33.81
39051;BME280;24805;55.852;37.644;2023-08-07T15:38:05;98797.88;;;31.28;34.67
39051;BME280;24805;55.852;37.644;2023-08-07T15:43:08;98762.19;;;31.15;34.36
39051;BME280;24805;55.852;37.644;2023-08-07T15:48:12;98782.69;;;31.01;34.92
39051;BME280;24805;55.852;37.644;2023-08-07T15:53:15;98784.06;;;30.86;35.40
39051;BME280;24805;55.852;37.644;2023-08-07T15:58:18;98779.88;;;30.80;35.44
39051;BME280;24805;55.852;37.644;2023-08-07T16:03:21;98778.66;;;30.69;35.65
39051;BME280;24805;55.852;37.644;2023-08-07T16:08:25;98776.94;;;30.56;35.72
39051;BME280;24805;55.852;37.644;2023-08-07T16:13:28;98787.38;;;30.54;35.53
39051;BME280;24805;55.852;37.644;2023-08-07T16:18:31;98781.44;;;30.43;35.81
39051;BME280;24805;55.852;37.644;2023-08-07T16:23:35;98772.13;;;30.27;35.82
39051;BME280;24805;55.852;37.644;2023-08-07T16:28:37;98762.34;;;30.17;36.08
39051;BME280;24805;55.852;37.644;2023-08-07T16:33:40;98763.63;;;30.02;36.18
39051;BME280;24805;55.852;37.644;2023-08-07T16:38:43;98752.84;;;29.89;36.41
39051;BME280;24805;55.852;37.644;2023-08-07T16:43:46;98756.53;;;29.84;36.87
39051;BME280;24805;55.852;37.644;2023-08-07T16:48:48;98772.31;;;29.70;36.86
39051;BME280;24805;55.852;37.644;2023-08-07T16:53:51;98736.28;;;29.59;37.20
39051;BME280;24805;55.852;37.644;2023-08-07T16:58:54;98759.28;;;29.50;37.73
39051;BME280;24805;55.852;37.644;2023-08-07T17:03:56;98755.56;;;29.37;37.91
39051;BME280;24805;55.852;37.644;2023-08-07T17:09:00;98746.84;;;29.26;38.19
39051;BME280;24805;55.852;37.644;2023-08-07T17:14:03;98762.25;;;29.13;38.61
39051;BME280;24805;55.852;37.644;2023-08-07T17:19:05;98757.69;;;29.00;38.97
39051;BME280;24805;55.852;37.644;2023-08-07T17:24:08;98754.78;;;28.88;39.06
39051;BME280;24805;55.852;37.644;2023-08-07T17:29:12;98764.66;;;28.75;39.42
39051;BME280;24805;55.852;37.644;2023-08-07T17:34:15;98763.81;;;28.66;39.76
39051;BME280;24805;55.852;37.644;2023-08-07T17:39:17;98757.34;;;28.54;40.28
39051;BME280;24805;55.852;37.644;2023-08-07T17:44:20;98760.81;;;28.45;40.04
39051;BME280;24805;55.852;37.644;2023-08-07T17:49:23;98760.94;;;28.40;40.55
39051;BME280;24805;55.852;37.644;2023-08-07T17:54:25;98771.19;;;28.35;40.94
39051;BME280;24805;55.852;37.644;2023-08-07T17:59:28;98781.44;;;28.29;40.82
39051;BME280;24805;55.852;37.644;2023-08-07T18:04:31;98773.19;;;28.21;41.06
39051;BME280;24805;55.852;37.644;2023-08-07T18:09:33;98778.44;;;28.17;40.90
39051;BME280;24805;55.852;37.644;2023-08-07T18:14:36;98775.66;;;28.08;41.14
39051;BME280;24805;55.852;37.644;2023-08-07T18:19:38;98766.44;;;27.96;41.34
39051;BME280;24805;55.852;37.644;2023-08-07T18:24:40;98767.34;;;27.91;41.61
39051;BME280;24805;55.852;37.644;2023-08-07T18:29:44;98772.41;;;27.84;41.56
39051;BME280;24805;55.852;37.644;2023-08-07T18:34:46;98792.66;;;27.69;42.13
39051;BME280;24805;55.852;37.644;2023-08-07T18:39:48;98809.19;;;27.73;41.66
39051;BME280;24805;55.852;37.644;2023-08-07T18:44:51;98813.03;;;27.72;41.69
39051;BME280;24805;55.852;37.644;2023-08-07T18:49:53;98791.75;;;27.60;42.40
39051;BME280;24805;55.852;37.644;2023-08-07T18:54:55;98799.53;;;27.53;42.63
39051;BME280;24805;55.852;37.644;2023-08-07T18:59:58;98794.50;;;27.47;42.80
39051;BME280;24805;55.852;37.644;2023-08-07T19:05:01;98781.50;;;27.30;42.72
39051;BME280;24805;55.852;37.644;2023-08-07T19:10:05;98798.06;;;27.33;42.87
39051;BME280;24805;55.852;37.644;2023-08-07T19:15:08;98797.34;;;27.28;42.98
39051;BME280;24805;55.852;37.644;2023-08-07T19:20:15;98799.56;;;27.26;42.87
39051;BME280;24805;55.852;37.644;2023-08-07T19:25:19;98785.56;;;27.05;43.80
39051;BME280;24805;55.852;37.644;2023-08-07T19:30:21;98767.59;;;26.90;43.88
39051;BME280;24805;55.852;37.644;2023-08-07T19:35:23;98771.63;;;26.93;44.00
39051;BME280;24805;55.852;37.644;2023-08-07T19:40:26;98771.22;;;26.86;44.78
39051;BME280;24805;55.852;37.644;2023-08-07T19:45:29;98769.50;;;26.76;45.04
39051;BME280;24805;55.852;37.644;2023-08-07T19:50:31;98753.66;;;26.64;45.25
39051;BME280;24805;55.852;37.644;2023-08-07T19:55:34;98735.94;;;26.53;45.31
39051;BME280;24805;55.852;37.644;2023-08-07T20:00:36;98747.19;;;26.47;46.03
39051;BME280;24805;55.852;37.644;2023-08-07T20:05:39;98740.84;;;26.37;45.18
39051;BME280;24805;55.852;37.644;2023-08-07T20:10:42;98732.03;;;26.27;45.72
39051;BME280;24805;55.852;37.644;2023-08-07T20:15:45;98725.56;;;26.23;45.89
39051;BME280;24805;55.852;37.644;2023-08-07T20:20:47;98707.31;;;26.09;46.36
39051;BME280;24805;55.852;37.644;2023-08-07T20:25:50;98700.16;;;26.00;46.62
39051;BME280;24805;55.852;37.644;2023-08-07T20:30:52;98695.81;;;25.99;46.90
39051;BME280;24805;55.852;37.644;2023-08-07T20:35:54;98672.13;;;25.86;47.27
39051;BME280;24805;55.852;37.644;2023-08-07T20:40:56;98665.97;;;25.80;47.23
39051;BME280;24805;55.852;37.644;2023-08-07T20:45:59;98681.06;;;25.72;47.49
39051;BME280;24805;55.852;37.644;2023-08-07T20:51:01;98696.66;;;25.62;48.04
39051;BME280;24805;55.852;37.644;2023-08-07T20:56:04;98709.84;;;25.55;48.56
39051;BME280;24805;55.852;37.644;2023-08-07T21:01:06;98697.78;;;25.42;48.60
39051;BME280;24805;55.852;37.644;2023-08-07T21:06:09;98708.63;;;25.42;48.60
39051;BME280;24805;55.852;37.644;2023-08-07T21:11:11;98713.25;;;25.41;48.66
39051;BME280;24805;55.852;37.644;2023-08-07T21:16:13;98707.03;;;25.41;48.29
39051;BME280;24805;55.852;37.644;2023-08-07T21:21:17;98694.34;;;25.36;48.47
39051;BME280;24805;55.852;37.644;2023-08-07T21:26:20;98691.84;;;25.40;48.19
39051;BME280;24805;55.852;37.644;2023-08-07T21:31:22;98675.84;;;25.38;48.02
39051;BME280;24805;55.852;37.644;2023-08-07T21:36:24;98682.25;;;25.29;47.87
39051;BME280;24805;55.852;37.644;2023-08-07T21:41:26;98670.94;;;25.22;47.84
39051;BME280;24805;55.852;37.644;2023-08-07T21:46:29;98701.25;;;25.29;48.10
39051;BME280;24805;55.852;37.644;2023-08-07T21:51:31;98688.31;;;25.21;48.08
39051;BME280;24805;55.852;37.644;2023-08-07T21:56:34;98676.75;;;25.15;48.04
39051;BME280;24805;55.852;37.644;2023-08-07T22:01:36;98674.09;;;25.10;48.29
39051;BME280;24805;55.852;37.644;2023-08-07T22:06:39;98661.69;;;25.04;47.97
39051;BME280;24805;55.852;37.644;2023-08-07T22:11:42;98676.72;;;24.96;48.12
39051;BME280;24805;55.852;37.644;2023-08-07T22:16:44;98670.78;;;24.94;48.16
39051;BME280;24805;55.852;37.644;2023-08-07T22:21:46;98681.91;;;24.93;48.04
39051;BME280;24805;55.852;37.644;2023-08-07T22:26:50;98726.16;;;24.88;48.27
39051;BME280;24805;55.852;37.644;2023-08-07T22:31:52;98747.59;;;24.90;47.86
39051;BME280;24805;55.852;37.644;2023-08-07T22:36:54;98739.16;;;24.91;47.55
39051;BME280;24805;55.852;37.644;2023-08-07T22:41:57;98740.50;;;24.94;47.79
39051;BME280;24805;55.852;37.644;2023-08-07T22:47:00;98740.50;;;24.94;47.65
39051;BME280;24805;55.852;37.644;2023-08-07T22:52:02;98705.28;;;24.89;47.41
39051;BME280;24805;55.852;37.644;2023-08-07T22:57:04;98698.75;;;24.90;47.46
39051;BME280;24805;55.852;37.644;2023-08-07T23:02:07;98699.63;;;24.85;47.69
39051;BME280;24805;55.852;37.644;2023-08-07T23:07:09;98689.81;;;24.89;47.29
39051;BME280;24805;55.852;37.644;2023-08-07T23:12:12;98673.97;;;24.78;48.05
39051;BME280;24805;55.852;37.644;2023-08-07T23:17:17;98685.16;;;24.71;48.14
39051;BME280;24805;55.852;37.644;2023-08-07T23:22:20;98674.66;;;24.64;48.22
39051;BME280;24805;55.852;37.644;2023-08-07T23:27:22;98672.31;;;24.58;48.32
39051;BME280;24805;55.852;37.644;2023-08-07T23:32:24;98658.00;;;24.52;48.71
39051;BME280;24805;55.852;37.644;2023-08-07T23:37:26;98631.88;;;24.37;49.06
39051;BME280;24805;55.852;37.644;2023-08-07T23:42:29;98675.47;;;24.41;49.28
39051;BME280;24805;55.852;37.644;2023-08-07T23:47:31;98656.91;;;24.29;49.78
39051;BME280;24805;55.852;37.644;2023-08-07T23:52:33;98651.53;;;24.19;50.15
39051;BME280;24805;55.852;37.644;2023-08-07T23:57:36;98657.63;;;24.06;50.29
